createdAt,value
2019-04-26T00:02:12.280Z,0.97
2019-04-26T00:04:55.191Z,0.80
2019-04-26T00:07:44.913Z,1.07
2019-04-26T00:19:55.330Z,0.60
2019-04-26T00:22:45.301Z,0.80
2019-04-26T00:25:27.523Z,0.80
2019-04-26T00:28:17.247Z,0.63
2019-04-26T00:30:59.900Z,0.60
2019-04-26T00:33:49.625Z,0.80
2019-04-26T00:36:32.201Z,1.10
2019-04-26T00:39:24.155Z,0.67
2019-04-26T00:42:05.837Z,0.90
2019-04-26T00:45:16.772Z,0.70
2019-04-26T00:47:59.795Z,0.83
2019-04-26T00:50:49.550Z,0.60
2019-04-26T00:53:59.800Z,0.97
2019-04-26T00:56:49.792Z,0.80
2019-04-26T00:59:31.862Z,1.00
2019-04-26T01:02:40.383Z,0.90
2019-04-26T01:05:25.247Z,0.90
2019-04-26T01:08:07.362Z,0.90
2019-04-26T01:10:57.138Z,1.00
2019-04-26T01:13:46.846Z,0.83
2019-04-26T01:16:29.874Z,0.90
2019-04-26T01:19:20.317Z,1.00
2019-04-26T01:22:05.602Z,0.57
2019-04-26T01:28:11.768Z,0.93
2019-04-26T01:31:34.079Z,0.80
2019-04-26T01:34:18.970Z,1.00
2019-04-26T01:37:09.076Z,0.80
2019-04-26T01:46:22.082Z,0.77
2019-04-26T01:49:33.320Z,0.57
2019-04-26T01:52:15.559Z,0.77
2019-04-26T01:58:21.984Z,0.50
2019-04-26T02:01:31.641Z,0.60
2019-04-26T02:07:37.099Z,0.50
2019-04-26T02:10:27.033Z,0.80
2019-04-26T02:13:10.909Z,0.50
2019-04-26T02:16:00.629Z,0.60
2019-04-26T02:18:43.453Z,0.77
2019-04-26T02:21:52.970Z,0.43
2019-04-26T02:24:45.158Z,0.60
2019-04-26T02:27:41.541Z,0.60
2019-04-26T02:30:33.290Z,0.63
2019-04-26T02:33:15.321Z,0.90
2019-04-26T02:36:05.100Z,0.60
2019-04-26T02:42:34.953Z,0.67
2019-04-26T02:46:02.755Z,0.67
2019-04-26T02:49:08.626Z,0.70
2019-04-26T02:55:18.306Z,0.70
2019-04-26T02:58:08.098Z,0.90
2019-04-26T03:01:18.418Z,0.80
2019-04-26T03:04:08.174Z,0.50
2019-04-26T03:10:12.137Z,0.67
2019-04-26T03:16:37.390Z,0.70
2019-04-26T03:20:06.917Z,0.77
2019-04-26T03:26:06.364Z,0.70
2019-04-26T03:29:35.555Z,0.83
2019-04-26T03:33:10.953Z,1.00
2019-04-26T03:36:17.113Z,0.67
2019-04-26T03:43:07.865Z,1.00
2019-04-26T03:46:08.843Z,0.90
2019-04-26T03:49:38.002Z,0.80
2019-04-26T03:52:41.528Z,0.60
2019-04-26T03:56:09.253Z,0.80
2019-04-26T04:08:32.692Z,1.03
2019-04-26T04:14:46.732Z,2.53
2019-04-26T04:17:58.747Z,0.90
2019-04-26T04:21:25.285Z,1.07
2019-04-26T04:27:45.763Z,0.97
2019-04-26T04:30:33.066Z,1.40
2019-04-26T04:36:46.221Z,1.30
2019-04-26T04:40:20.387Z,1.00
2019-04-26T04:53:25.543Z,1.43
2019-04-26T04:56:30.915Z,1.00
2019-04-26T05:00:01.340Z,1.00
2019-04-26T05:03:07.666Z,0.97
2019-04-26T05:09:17.630Z,0.60
2019-04-26T05:12:41.929Z,0.60
2019-04-26T05:15:48.480Z,0.40
2019-04-26T05:19:35.187Z,0.33
2019-04-26T05:23:03.084Z,1.30
2019-04-26T05:26:25.813Z,0.10
2019-04-26T05:39:18.649Z,0.20
2019-04-26T05:52:18.983Z,0.93
2019-04-26T06:08:47.825Z,0.30
2019-04-26T06:18:17.579Z,0.50
2019-04-26T06:21:23.693Z,0.40
2019-04-26T06:24:26.325Z,0.70
2019-04-26T06:27:56.467Z,0.40
2019-04-26T06:31:10.502Z,0.40
2019-04-26T06:34:12.163Z,0.60
2019-04-26T06:37:45.039Z,0.40
2019-04-26T06:40:48.033Z,0.90
2019-04-26T06:44:17.498Z,0.70
2019-04-26T06:47:21.080Z,0.70
2019-04-26T06:53:33.133Z,0.97
2019-04-26T06:57:09.626Z,0.60
2019-04-26T07:00:06.569Z,0.60
2019-04-26T07:03:34.563Z,0.70
2019-04-26T07:06:16.966Z,0.73
2019-04-26T07:15:50.728Z,0.70
2019-04-26T07:19:18.622Z,0.77
2019-04-26T07:22:35.137Z,0.50
2019-04-26T07:25:56.340Z,0.70
2019-04-26T07:29:01.427Z,0.50
2019-04-26T07:35:14.710Z,0.40
2019-04-26T07:41:51.330Z,0.60
2019-04-26T07:45:13.094Z,0.60
2019-04-26T07:48:40.966Z,0.70
2019-04-26T07:52:08.894Z,0.80
2019-04-26T07:55:10.871Z,0.90
2019-04-26T07:58:13.172Z,0.90
2019-04-26T08:08:30.472Z,1.00
2019-04-26T08:11:16.964Z,1.50
2019-04-26T08:14:46.458Z,1.17
2019-04-26T08:17:51.403Z,1.00
2019-04-26T08:20:56.116Z,1.10
2019-04-26T08:27:13.927Z,0.90
2019-04-26T08:29:47.258Z,0.53
2019-04-26T08:35:53.370Z,0.63
2019-04-26T08:42:01.718Z,0.60
2019-04-26T08:48:27.920Z,0.57
2019-04-26T08:51:39.018Z,0.60
2019-04-26T08:55:08.375Z,0.53
2019-04-26T08:57:51.077Z,0.43
2019-04-26T09:04:33.725Z,0.40
2019-04-26T09:07:18.678Z,0.50
2019-04-26T09:13:24.590Z,0.60
2019-04-26T09:19:32.185Z,0.77
2019-04-26T09:25:39.340Z,0.70
2019-04-26T09:28:49.003Z,0.70
2019-04-26T09:31:40.170Z,0.70
2019-04-26T09:34:30.261Z,0.63
2019-04-26T09:37:12.795Z,0.67
2019-04-26T09:43:30.386Z,2.60
2019-04-26T09:46:38.932Z,0.90
2019-04-26T09:49:41.205Z,1.97
2019-04-26T09:55:19.849Z,1.10
2019-04-26T09:58:09.649Z,1.50
2019-04-26T10:00:52.855Z,0.87
2019-04-26T10:03:42.562Z,1.47
2019-04-26T10:06:26.171Z,1.70
2019-04-26T10:12:43.534Z,1.20
2019-04-26T10:15:52.036Z,1.30
2019-04-26T10:18:35.726Z,1.30
2019-04-26T10:21:25.505Z,1.30
2019-04-26T10:24:08.440Z,1.30
2019-04-26T10:26:59.298Z,1.97
2019-04-26T10:29:44.205Z,1.33
2019-04-26T10:32:33.932Z,1.00
2019-04-26T10:35:21.661Z,1.57
2019-04-26T10:38:09.871Z,1.10
2019-04-26T10:40:52.410Z,0.90
2019-04-26T10:43:42.158Z,1.00
2019-04-26T10:46:24.513Z,1.03
2019-04-26T10:49:54.462Z,1.00
2019-04-26T10:56:09.692Z,0.73
2019-04-26T10:59:06.005Z,0.80
2019-04-26T11:01:48.676Z,0.80
2019-04-26T11:04:41.342Z,0.67
2019-04-26T11:07:23.134Z,0.50
2019-04-26T11:10:24.605Z,0.53
2019-04-26T11:13:07.475Z,0.87
2019-04-26T11:15:57.373Z,1.50
2019-04-26T11:18:47.161Z,0.60
2019-04-26T11:21:36.870Z,1.80
2019-04-26T11:24:26.564Z,1.87
2019-04-26T11:27:16.274Z,0.90
2019-04-26T11:30:00.059Z,0.70
2019-04-26T11:32:49.797Z,0.80
2019-04-26T11:35:33.270Z,0.40
2019-04-26T11:38:26.848Z,0.67
2019-04-26T11:41:08.133Z,1.87
2019-04-26T11:43:57.882Z,1.00
2019-04-26T11:46:44.975Z,0.60
2019-04-26T11:49:31.951Z,0.67
2019-04-26T11:52:14.041Z,0.80
2019-04-26T11:55:04.049Z,0.90
2019-04-26T11:57:50.281Z,1.00
2019-04-26T12:04:07.129Z,0.60
2019-04-26T12:07:14.752Z,0.60
2019-04-26T12:10:00.515Z,0.60
2019-04-26T12:12:51.805Z,0.50
2019-04-26T12:15:34.297Z,0.50
2019-04-26T12:18:24.099Z,0.70
2019-04-26T12:21:06.911Z,0.43
2019-04-26T12:23:56.717Z,0.50
2019-04-26T12:26:42.969Z,0.33
2019-04-26T12:29:30.469Z,0.40
2019-04-26T12:32:17.186Z,0.60
2019-04-26T12:35:06.271Z,0.70
2019-04-26T12:37:50.680Z,0.60
2019-04-26T12:40:42.324Z,0.40
2019-04-26T12:43:26.154Z,0.77
2019-04-26T12:49:28.167Z,0.60
2019-04-26T12:52:21.667Z,0.50
2019-04-26T12:55:02.580Z,0.50
2019-04-26T13:01:00.572Z,0.50
2019-04-26T13:04:09.104Z,0.60
2019-04-26T13:10:19.364Z,0.43
2019-04-26T13:13:20.526Z,0.43
2019-04-26T13:16:26.289Z,0.30
2019-04-26T13:19:08.431Z,0.60
2019-04-26T13:21:58.195Z,0.40
2019-04-26T13:24:47.995Z,0.50
2019-04-26T13:27:41.565Z,0.47
2019-04-26T13:30:32.688Z,0.40
2019-04-26T13:33:15.340Z,0.50
2019-04-26T13:36:05.399Z,0.80
2019-04-26T13:38:49.713Z,0.67
2019-04-26T13:41:40.253Z,0.40
2019-04-26T13:44:42.749Z,0.73
2019-04-26T13:47:45.624Z,0.50
2019-04-26T13:50:35.581Z,0.60
2019-04-26T13:53:25.808Z,0.73
2019-04-26T13:56:09.793Z,0.50
2019-04-26T14:02:11.320Z,0.70
2019-04-26T14:04:46.866Z,0.73
2019-04-26T14:07:36.645Z,1.60
2019-04-26T14:10:19.490Z,2.00
2019-04-26T14:13:09.345Z,1.20
2019-04-26T14:15:59.142Z,0.80
2019-04-26T14:18:48.986Z,0.80
2019-04-26T14:21:38.858Z,0.57
2019-04-26T14:24:47.451Z,0.47
2019-04-26T14:27:45.361Z,1.07
2019-04-26T14:30:28.008Z,1.27
2019-04-26T14:33:17.750Z,0.53
2019-04-26T14:36:00.677Z,0.47
2019-04-26T14:38:50.450Z,1.13
2019-04-26T14:41:40.318Z,0.67
2019-04-26T14:47:29.947Z,0.60
2019-04-26T14:50:18.622Z,0.43
2019-04-26T14:53:02.363Z,0.67
2019-04-26T14:55:54.633Z,0.73
2019-04-26T14:58:36.782Z,0.70
2019-04-26T15:04:42.268Z,1.33
2019-04-26T15:07:34.233Z,0.80
2019-04-26T15:13:23.565Z,1.63
2019-04-26T15:16:14.278Z,0.70
2019-04-26T15:18:59.349Z,1.10
2019-04-26T15:21:49.104Z,1.03
2019-04-26T15:24:35.015Z,0.60
2019-04-26T15:27:22.734Z,1.03
2019-04-26T15:30:05.003Z,0.73
2019-04-26T15:32:54.813Z,1.40
2019-04-26T15:35:36.661Z,1.40
2019-04-26T15:38:26.364Z,1.90
2019-04-26T15:41:27.556Z,0.83
2019-04-26T15:44:36.081Z,2.70
2019-04-26T15:47:40.121Z,2.57
2019-04-26T15:50:52.054Z,0.63
2019-04-26T15:53:33.158Z,0.37
2019-04-26T15:56:23.091Z,0.70
2019-04-26T15:59:06.143Z,0.33
2019-04-26T16:01:56.422Z,0.47
2019-04-26T16:04:39.541Z,0.40
2019-04-26T16:07:29.318Z,0.80
2019-04-26T16:10:12.175Z,0.50
2019-04-26T16:13:16.226Z,0.60
2019-04-26T16:15:48.890Z,0.60
2019-04-26T16:18:39.570Z,0.60
2019-04-26T16:21:29.304Z,0.80
2019-04-26T16:24:12.908Z,0.50
2019-04-26T16:27:02.857Z,0.57
2019-04-26T16:30:04.545Z,0.50
2019-04-26T16:35:49.546Z,0.47
2019-04-26T16:38:39.375Z,0.40
2019-04-26T16:41:43.106Z,0.60
2019-04-26T16:44:29.966Z,0.50
2019-04-26T16:47:17.163Z,0.30
2019-04-26T16:50:02.058Z,0.33
2019-04-26T16:52:50.685Z,0.30
2019-04-26T16:58:31.034Z,0.53
2019-04-26T17:00:45.481Z,0.37
2019-04-26T17:01:11.622Z,0.60
2019-04-26T17:04:04.673Z,0.73
2019-04-26T17:06:46.501Z,0.50
2019-04-26T17:09:55.831Z,0.53
2019-04-26T17:12:22.634Z,0.50
2019-04-26T17:15:13.329Z,0.40
2019-04-26T17:18:03.272Z,0.70
2019-04-26T17:20:53.198Z,0.60
2019-04-26T17:24:00.736Z,0.50
2019-04-26T17:26:49.606Z,0.50
2019-04-26T17:29:38.798Z,0.73
2019-04-26T17:32:25.701Z,0.50
2019-04-26T17:35:08.931Z,0.67
2019-04-26T17:37:51.852Z,0.53
2019-04-26T17:40:41.622Z,0.43
2019-04-26T17:43:31.364Z,0.97
2019-04-26T17:46:21.625Z,0.80
2019-04-26T17:49:10.990Z,0.73
2019-04-26T17:52:01.976Z,0.77
2019-04-26T17:54:49.548Z,0.90
2019-04-26T17:57:43.490Z,0.87
2019-04-26T18:00:26.995Z,1.00
2019-04-26T18:03:17.552Z,0.80
2019-04-26T18:06:01.074Z,0.60
2019-04-26T18:08:54.538Z,1.10
2019-04-26T18:11:34.898Z,1.37
2019-04-26T18:14:29.652Z,1.03
2019-04-26T18:17:27.915Z,1.07
2019-04-26T18:23:31.779Z,1.63
2019-04-26T18:26:22.532Z,1.70
2019-04-26T18:29:05.452Z,1.53
2019-04-26T18:37:18.278Z,1.70
2019-04-26T18:43:24.273Z,1.70
2019-04-26T18:49:18.274Z,1.80
2019-04-26T18:52:08.803Z,1.40
2019-04-26T18:54:54.996Z,1.70
2019-04-26T18:57:47.312Z,1.57
2019-04-26T19:03:38.604Z,1.70
2019-04-26T19:06:29.734Z,1.63
2019-04-26T19:12:12.934Z,1.67
2019-04-26T19:15:21.938Z,1.77
2019-04-26T19:18:22.908Z,1.43
2019-04-26T19:21:32.287Z,1.50
2019-04-26T19:24:19.515Z,1.87
2019-04-26T19:27:07.877Z,2.90
2019-04-26T19:29:54.713Z,2.80
2019-04-26T19:32:44.465Z,2.47
2019-04-26T19:35:27.252Z,2.40
2019-04-26T19:38:17.446Z,2.03
2019-04-26T19:41:07.540Z,2.60
2019-04-26T19:43:49.911Z,2.70
2019-04-26T19:47:04.924Z,2.57
2019-04-26T19:50:04.093Z,2.30
2019-04-26T19:53:04.853Z,2.30
2019-04-26T19:56:10.267Z,2.17
2019-04-26T19:58:57.440Z,2.33
2019-04-26T20:04:30.634Z,2.97
2019-04-26T20:07:19.627Z,2.47
2019-04-26T20:10:04.904Z,2.90
2019-04-26T20:12:53.203Z,3.20
2019-04-26T20:15:35.418Z,3.90
2019-04-26T20:18:25.155Z,4.83
2019-04-26T20:21:12.693Z,6.67
2019-04-26T20:23:58.997Z,5.03
2019-04-26T20:26:44.699Z,4.40
2019-04-26T20:29:27.487Z,3.20
2019-04-26T20:32:36.921Z,2.40
2019-04-26T20:35:28.379Z,2.60
2019-04-26T20:38:12.734Z,2.37
2019-04-26T20:41:03.089Z,2.10
2019-04-26T20:43:36.282Z,2.13
2019-04-26T20:48:53.065Z,2.20
2019-04-26T20:51:46.318Z,1.90
2019-04-26T20:54:28.798Z,1.80
2019-04-26T20:57:18.528Z,1.90
2019-04-26T21:00:03.346Z,2.20
2019-04-26T21:02:54.058Z,2.17
2019-04-26T21:05:45.702Z,2.60
2019-04-26T21:08:28.165Z,2.10
2019-04-26T21:11:11.172Z,2.57
2019-04-26T21:14:07.442Z,2.10
2019-04-26T21:16:49.384Z,3.03
2019-04-26T21:19:37.946Z,2.23
2019-04-26T21:22:25.486Z,2.57
2019-04-26T21:31:50.444Z,2.50
2019-04-26T21:34:36.342Z,2.40
2019-04-26T21:41:01.617Z,2.90
2019-04-26T21:43:47.913Z,2.37
2019-04-26T21:46:33.515Z,2.30
2019-04-26T21:52:29.466Z,2.07
2019-04-26T21:55:19.450Z,2.50
2019-04-26T21:58:05.206Z,2.33
2019-04-26T22:01:20.978Z,2.20
2019-04-26T22:04:04.997Z,2.27
2019-04-26T22:06:55.642Z,5.10
2019-04-26T22:12:55.138Z,2.20
2019-04-26T22:16:03.474Z,1.97
2019-04-26T22:19:07.581Z,2.17
2019-04-26T22:22:17.172Z,2.30
2019-04-26T22:25:09.988Z,2.13
2019-04-26T22:28:13.779Z,2.27
2019-04-26T22:30:44.532Z,2.80
2019-04-26T22:33:34.601Z,2.83
2019-04-26T22:36:16.972Z,2.90
2019-04-26T22:42:23.925Z,2.97
2019-04-26T22:45:33.566Z,3.00
2019-04-26T22:48:44.166Z,2.93
2019-04-26T22:57:03.780Z,2.50
2019-04-26T23:00:14.922Z,2.70
2019-04-26T23:02:58.098Z,2.50
2019-04-26T23:05:48.903Z,3.60
2019-04-26T23:08:35.251Z,3.43
2019-04-26T23:11:25.291Z,3.00
2019-04-26T23:14:33.884Z,3.10
2019-04-26T23:17:43.949Z,3.00
2019-04-26T23:20:43.505Z,3.03
2019-04-26T23:23:37.080Z,3.13
2019-04-26T23:26:18.840Z,2.90
2019-04-26T23:29:15.676Z,2.47
2019-04-26T23:31:53.445Z,3.00
2019-04-26T23:35:06.044Z,3.10
2019-04-26T23:37:48.543Z,3.30
2019-04-26T23:40:38.678Z,4.10
2019-04-26T23:43:25.444Z,3.47
2019-04-26T23:46:14.627Z,3.40
2019-04-26T23:48:57.305Z,3.00
2019-04-26T23:51:47.070Z,2.90
2019-04-26T23:54:36.778Z,3.17
2019-04-26T23:57:27.385Z,3.57
